Weather at Phoenix Sky Harbor International Airport

Public forecast

Using degrees Fahrenheit for public forecast. Weather courtesy of forecast.io.

Current aviation weather report (METAR) for Phoenix Sky Harbor International Airport

Retrieved 2022/05/21 23:51 UTC (30 minutes ago):

KPHX 212351Z 29013G17KT 10SM CLR 33/03 A2978 RMK AO2 SLP065 T03330033 10339 20289 56012

Aviation forecast (TAF) for Phoenix Sky Harbor International Airport

Retrieved 2022-05-22 00:33 UTC (0 seconds ago):

TAF KPHX 212329Z 2200/2306 27008G15KT P6SM SKC TEMPO 2200/2202 27015G24KT FM220400 31007KT P6SM SKC FM220900 09006KT P6SM FEW250 FM221600 17009KT P6SM SCT250 FM222100 24007G15KT P6SM SCT250